world map with GCH marked

GCH - Airport

This information may not be accurate or current and is not valid for navigation or flight planning. No warranty of fitness for any purpose is made or implied.

flag of Iran

Donate via PayPal

Additional information is available on the NEW Great Circle Mapper

Location
City:  Gachsaran, Kohgiluyeh va Buyer Ahmad, Iran
ICAO / IATA:OIAH / GCH

Details
Type:Airport (Aerodrome, Airfield)
Latitude:30°20'15"N (30.337567)
Longitude:50°49'41"E (50.827964)
Datum:WGS 1984
Elevation:2414 ft (736 m)
Runways:1
Longest:6070 × 148 ft (1850 × 45 m)

Time
Timezone:UTC+3:30 (DST+6:30)
Local Time:

Weather
METAR:OIAH  041400Z 00000KT 9999 FEW040 12/01 Q1021
TAF:OIAH  (expired)

Related Locations
Nearby:
Farthest:GMR: 11824 mi / 19029 km
Mangareva [Totegegie], Gambier Islands, PF

Find:

   beyond  
but within

Other Information
Maps:
Sources:

  


 


Great Circle Mapper   Great Circle Mapper
Great Circle Mapper FAQ   Great Circle Mapper FAQ
  Karl's Home Page
KLSē   KLSē Home
   GC on Facebook
Airlines of the World   Airlines of the World
Donate via PayPal


Copyright © 2004-2020, Karl L. Swartz. All rights reserved.
All trademarks mentioned herein belong to their respective owners.

Please see credits for attribution and copyright information.

Karl Swartz <karl@kls2.com>
  Powered by FreeBSD
Valid HTML 4.01!
Labeled with ICRA
hCard Microformat
Geo Microformat